createdAt,value
2018-04-08T00:00:09.463Z,4.10
2018-04-08T00:02:41.464Z,3.13
2018-04-08T00:05:14.045Z,4.90
2018-04-08T00:07:44.784Z,4.97
2018-04-08T00:10:23.403Z,7.80
2018-04-08T00:12:55.163Z,3.70
2018-04-08T00:15:26.404Z,6.00
2018-04-08T00:17:58.044Z,4.30
2018-04-08T00:20:29.463Z,16.03
2018-04-08T00:23:03.462Z,7.63
2018-04-08T00:25:37.483Z,4.90
2018-04-08T00:28:10.463Z,4.10
2018-04-08T00:30:41.765Z,3.10
2018-04-08T00:33:19.463Z,5.60
2018-04-08T00:35:51.922Z,3.70
2018-04-08T00:38:28.903Z,3.00
2018-04-08T00:40:59.850Z,3.63
2018-04-08T00:43:30.483Z,4.03
2018-04-08T00:46:02.744Z,4.27
2018-04-08T00:48:37.363Z,7.30
2018-04-08T00:51:09.243Z,6.37
2018-04-08T00:53:41.102Z,6.67
2018-04-08T00:56:17.664Z,5.80
2018-04-08T00:58:51.983Z,4.63
2018-04-08T01:01:23.463Z,7.37
2018-04-08T01:03:57.844Z,7.20
2018-04-08T01:06:29.303Z,6.47
2018-04-08T01:09:01.503Z,8.43
2018-04-08T01:11:38.483Z,6.50
2018-04-08T01:14:12.862Z,6.80
2018-04-08T01:16:44.303Z,5.33
2018-04-08T01:19:21.482Z,6.10
2018-04-08T01:21:55.303Z,5.17
2018-04-08T01:24:28.083Z,6.13
2018-04-08T01:26:58.703Z,7.03
2018-04-08T01:29:31.583Z,3.33
2018-04-08T01:32:06.943Z,5.07
2018-04-08T01:34:38.603Z,4.33
2018-04-08T01:37:10.863Z,5.73
2018-04-08T01:39:41.804Z,4.07
2018-04-08T01:42:13.524Z,6.10
2018-04-08T01:44:45.924Z,6.70
2018-04-08T01:47:16.864Z,5.43
2018-04-08T01:49:50.364Z,5.80
2018-04-08T01:52:22.424Z,6.77
2018-04-08T01:54:54.485Z,6.90
2018-04-08T01:57:29.024Z,6.60
2018-04-08T02:00:00.764Z,4.90
2018-04-08T02:02:40.004Z,6.73
2018-04-08T02:05:15.344Z,4.37
2018-04-08T02:07:47.924Z,7.10
2018-04-08T02:10:18.444Z,8.43
2018-04-08T02:12:48.984Z,4.87
2018-04-08T02:15:19.704Z,6.83
2018-04-08T02:17:50.144Z,5.27
2018-04-08T02:20:22.105Z,4.43
2018-04-08T02:22:53.144Z,4.40
2018-04-08T02:25:24.704Z,6.13
2018-04-08T02:27:56.244Z,9.13
2018-04-08T02:30:26.884Z,10.30
2018-04-08T02:33:03.047Z,13.30
2018-04-08T02:35:35.423Z,10.53
2018-04-08T02:38:10.244Z,7.53
2018-04-08T02:40:42.605Z,17.10
2018-04-08T02:43:12.424Z,9.57
2018-04-08T02:45:44.185Z,8.53
2018-04-08T02:48:16.244Z,10.97
2018-04-08T02:50:47.185Z,9.50
2018-04-08T02:53:18.025Z,10.33
2018-04-08T02:55:48.964Z,11.50
2018-04-08T02:58:25.304Z,9.80
2018-04-08T03:01:03.504Z,11.90
2018-04-08T03:03:34.775Z,13.40
2018-04-08T03:06:08.885Z,8.47
2018-04-08T03:08:42.985Z,8.45
2018-04-08T03:11:13.944Z,6.43
2018-04-08T03:13:46.103Z,5.87
2018-04-08T03:16:21.504Z,7.37
2018-04-08T03:18:54.227Z,5.13
2018-04-08T03:21:28.024Z,5.80
2018-04-08T03:23:58.364Z,5.53
2018-04-08T03:26:35.504Z,4.63
2018-04-08T03:29:07.804Z,9.10
2018-04-08T03:31:39.165Z,5.75
2018-04-08T03:34:10.574Z,5.00
2018-04-08T03:36:43.484Z,8.70
2018-04-08T03:39:15.964Z,5.53
2018-04-08T03:41:47.005Z,7.03
2018-04-08T03:44:19.884Z,7.03
2018-04-08T03:46:51.024Z,4.93
2018-04-08T03:49:22.984Z,7.82
2018-04-08T03:51:54.124Z,9.93
2018-04-08T03:54:30.505Z,9.20
2018-04-08T03:57:05.024Z,9.95
2018-04-08T03:59:38.624Z,11.27
2018-04-08T04:02:11.204Z,13.85
2018-04-08T04:04:42.524Z,12.57
2018-04-08T04:07:14.404Z,14.32
2018-04-08T04:09:46.151Z,17.65
2018-04-08T04:12:17.404Z,14.80
2018-04-08T04:14:49.484Z,17.42
2018-04-08T04:17:21.844Z,17.87
2018-04-08T04:20:05.884Z,18.83
2018-04-08T04:22:49.424Z,19.83
2018-04-08T04:28:43.225Z,16.50
2018-04-08T04:31:14.244Z,21.23
2018-04-08T04:33:46.824Z,19.42
2018-04-08T04:36:17.044Z,18.20
2018-04-08T04:38:47.564Z,17.27
2018-04-08T04:41:18.204Z,17.12
2018-04-08T04:43:48.844Z,18.55
2018-04-08T04:46:20.546Z,16.95
2018-04-08T04:48:52.864Z,19.25
2018-04-08T04:51:23.904Z,19.12
2018-04-08T04:53:57.104Z,17.30
2018-04-08T04:56:28.524Z,17.17
2018-04-08T04:59:00.404Z,16.37
2018-04-08T05:01:31.524Z,15.90
2018-04-08T05:04:08.624Z,15.55
2018-04-08T05:06:40.507Z,16.98
2018-04-08T05:09:11.233Z,16.15
2018-04-08T05:11:41.544Z,16.80
2018-04-08T05:14:13.584Z,18.60
2018-04-08T05:16:46.805Z,15.63
2018-04-08T05:19:22.344Z,17.67
2018-04-08T05:21:54.204Z,13.70
2018-04-08T05:24:25.044Z,13.10
2018-04-08T05:27:01.544Z,15.25
2018-04-08T05:29:38.544Z,14.00
2018-04-08T05:32:09.224Z,16.37
2018-04-08T05:34:40.884Z,18.52
2018-04-08T05:37:11.824Z,15.20
2018-04-08T05:39:43.984Z,14.07
2018-04-08T05:42:16.525Z,13.13
2018-04-08T05:44:47.391Z,14.55
2018-04-08T05:47:19.464Z,15.68
2018-04-08T05:49:50.404Z,16.20
2018-04-08T05:52:21.524Z,14.48
2018-04-08T05:54:53.404Z,16.83
2018-04-08T05:57:23.924Z,14.32
2018-04-08T05:59:54.864Z,17.08
2018-04-08T06:02:27.044Z,17.20
2018-04-08T06:04:58.531Z,16.50
2018-04-08T06:07:30.044Z,16.52
2018-04-08T06:10:00.990Z,14.38
2018-04-08T06:12:34.524Z,17.98
2018-04-08T06:15:05.587Z,18.23
2018-04-08T06:17:39.272Z,16.05
2018-04-08T06:20:10.864Z,15.18
2018-04-08T06:22:41.804Z,16.70
2018-04-08T06:25:17.144Z,16.50
2018-04-08T06:27:49.204Z,15.13
2018-04-08T06:30:22.544Z,15.77
2018-04-08T06:32:55.084Z,14.65
2018-04-08T06:35:30.544Z,18.42
2018-04-08T06:38:01.048Z,14.80
2018-04-08T06:40:33.124Z,15.10
2018-04-08T06:43:05.184Z,14.90
2018-04-08T06:45:36.584Z,15.25
2018-04-08T06:48:08.084Z,14.90
2018-04-08T06:50:40.144Z,14.15
2018-04-08T06:53:12.224Z,14.95
2018-04-08T06:55:44.886Z,15.57
2018-04-08T06:58:16.643Z,16.25
2018-04-08T07:00:47.184Z,16.05
2018-04-08T07:03:18.224Z,19.27
2018-04-08T07:05:54.063Z,17.10
2018-04-08T07:08:25.724Z,16.45
2018-04-08T07:10:59.945Z,15.50
2018-04-08T07:13:31.904Z,20.10
2018-04-08T07:16:04.164Z,16.80
2018-04-08T07:18:37.096Z,15.93
2018-04-08T07:21:08.564Z,16.50
2018-04-08T07:23:39.844Z,19.62
2018-04-08T07:26:11.404Z,19.55
2018-04-08T07:28:42.026Z,19.87
2018-04-08T07:31:14.808Z,18.65
2018-04-08T07:33:46.263Z,16.98
2018-04-08T07:36:16.564Z,18.52
2018-04-08T07:38:47.524Z,16.23
2018-04-08T07:41:20.923Z,18.20
2018-04-08T07:43:51.644Z,16.98
2018-04-08T07:46:26.904Z,17.42
2018-04-08T07:49:00.104Z,15.93
2018-04-08T07:51:35.424Z,16.60
2018-04-08T07:54:07.803Z,16.83
2018-04-08T07:56:44.061Z,17.55
2018-04-08T07:59:19.796Z,21.62
2018-04-08T08:01:55.668Z,16.05
2018-04-08T08:04:27.010Z,20.77
2018-04-08T08:07:04.310Z,18.83
2018-04-08T08:09:35.850Z,17.55
2018-04-08T08:12:11.389Z,16.25
2018-04-08T08:14:43.570Z,17.87
2018-04-08T08:17:14.409Z,18.50
2018-04-08T08:19:45.609Z,20.85
2018-04-08T08:22:16.169Z,18.30
2018-04-08T08:24:49.448Z,16.53
2018-04-08T08:27:20.509Z,19.50
2018-04-08T08:29:51.351Z,17.00
2018-04-08T08:32:27.570Z,17.40
2018-04-08T08:34:59.150Z,16.60
2018-04-08T08:37:31.229Z,20.50
2018-04-08T08:40:01.749Z,17.77
2018-04-08T08:42:38.210Z,21.40
2018-04-08T08:45:10.693Z,20.97
2018-04-08T08:47:49.408Z,18.90
2018-04-08T08:50:21.669Z,19.70
2018-04-08T08:52:58.589Z,20.55
2018-04-08T08:55:34.713Z,21.60
2018-04-08T08:58:05.350Z,20.95
2018-04-08T09:00:35.969Z,21.12
2018-04-08T09:03:08.028Z,22.30
2018-04-08T09:05:38.869Z,20.95
2018-04-08T09:08:13.509Z,24.20
2018-04-08T09:10:45.989Z,24.20
2018-04-08T09:13:17.128Z,22.05
2018-04-08T09:15:47.749Z,20.90
2018-04-08T09:18:23.513Z,21.67
2018-04-08T09:21:16.049Z,20.60
2018-04-08T09:23:53.233Z,20.33
2018-04-08T09:26:26.229Z,23.17
2018-04-08T09:28:57.049Z,20.92
2018-04-08T09:31:29.589Z,20.85
2018-04-08T09:34:03.129Z,21.15
2018-04-08T09:36:35.389Z,22.92
2018-04-08T09:39:08.069Z,21.83
2018-04-08T09:41:39.109Z,24.05
2018-04-08T09:44:15.989Z,23.85
2018-04-08T09:46:48.049Z,20.85
2018-04-08T09:49:18.889Z,23.20
2018-04-08T09:51:59.571Z,24.63
2018-04-08T09:54:32.128Z,25.08
2018-04-08T09:57:03.269Z,23.77
2018-04-08T09:59:38.310Z,24.33
2018-04-08T10:02:15.289Z,27.90
2018-04-08T10:04:48.689Z,24.45
2018-04-08T10:07:21.049Z,23.33
2018-04-08T10:09:51.889Z,23.65
2018-04-08T10:12:22.572Z,23.12
2018-04-08T10:14:54.893Z,21.42
2018-04-08T10:17:29.312Z,23.10
2018-04-08T10:20:02.809Z,23.77
2018-04-08T10:22:33.590Z,27.17
2018-04-08T10:25:04.689Z,25.73
2018-04-08T10:27:36.590Z,27.77
2018-04-08T10:30:07.689Z,22.63
2018-04-08T10:32:40.629Z,26.57
2018-04-08T10:35:11.591Z,22.47
2018-04-08T10:37:46.031Z,23.33
2018-04-08T10:40:21.069Z,22.77
2018-04-08T10:42:54.869Z,22.30
2018-04-08T10:45:26.429Z,23.37
2018-04-08T10:48:01.795Z,22.50
2018-04-08T10:50:33.510Z,25.40
2018-04-08T10:53:05.691Z,22.63
2018-04-08T10:55:37.049Z,24.23
2018-04-08T10:58:08.316Z,22.97
2018-04-08T11:00:38.830Z,24.77
2018-04-08T11:03:11.290Z,21.37
2018-04-08T11:05:43.151Z,21.47
2018-04-08T11:08:15.109Z,22.90
2018-04-08T11:10:46.970Z,23.87
2018-04-08T11:13:18.230Z,23.50
2018-04-08T11:15:50.790Z,25.10
2018-04-08T11:18:23.069Z,23.30
2018-04-08T11:20:58.709Z,24.57
2018-04-08T11:23:32.829Z,25.10
2018-04-08T11:26:04.570Z,22.77
2018-04-08T11:28:35.710Z,26.30
2018-04-08T11:31:06.349Z,23.80
2018-04-08T11:33:38.590Z,24.20
2018-04-08T11:36:12.610Z,28.60
2018-04-08T11:38:45.529Z,27.40
2018-04-08T11:41:22.592Z,23.60
2018-04-08T11:43:57.231Z,22.57
2018-04-08T11:46:30.909Z,25.87
2018-04-08T11:49:03.100Z,24.07
2018-04-08T11:51:34.850Z,25.23
2018-04-08T11:54:06.090Z,26.50
2018-04-08T11:56:38.969Z,23.30
2018-04-08T11:59:10.731Z,25.40
2018-04-08T12:01:44.590Z,23.83
2018-04-08T12:04:16.711Z,26.97
2018-04-08T12:06:49.990Z,22.07
2018-04-08T12:09:22.993Z,23.30
2018-04-08T12:11:54.850Z,24.30
2018-04-08T12:14:26.090Z,23.40
2018-04-08T12:16:56.929Z,23.20
2018-04-08T12:19:28.630Z,24.63
2018-04-08T12:21:59.709Z,21.00
2018-04-08T12:24:31.369Z,19.90
2018-04-08T12:27:03.609Z,21.43
2018-04-08T12:29:41.430Z,22.83
2018-04-08T12:32:14.729Z,20.63
2018-04-08T12:34:45.471Z,20.80
2018-04-08T12:37:22.853Z,21.63
2018-04-08T12:39:55.130Z,19.40
2018-04-08T12:42:26.370Z,13.40
2018-04-08T12:44:58.134Z,19.00
2018-04-08T12:47:30.191Z,16.70
2018-04-08T12:50:02.258Z,13.73
2018-04-08T12:52:33.289Z,10.77
2018-04-08T12:55:05.374Z,11.13
2018-04-08T12:57:38.773Z,11.17
2018-04-08T13:00:10.309Z,12.60
2018-04-08T13:02:44.309Z,13.17
2018-04-08T13:05:18.530Z,9.60
2018-04-08T13:07:48.370Z,9.30
2018-04-08T13:10:19.069Z,11.63
2018-04-08T13:12:51.250Z,14.10
2018-04-08T13:15:23.189Z,10.00
2018-04-08T13:17:55.669Z,9.70
2018-04-08T13:20:27.609Z,8.07
2018-04-08T13:22:59.910Z,9.27
2018-04-08T13:25:31.631Z,8.40
2018-04-08T13:28:04.750Z,11.90
2018-04-08T13:30:35.649Z,9.50
2018-04-08T13:33:08.570Z,12.53
2018-04-08T13:35:39.929Z,10.30
2018-04-08T13:38:12.215Z,8.90
2018-04-08T13:40:43.250Z,9.20
2018-04-08T13:43:15.209Z,7.70
2018-04-08T13:45:46.549Z,7.67
2018-04-08T13:48:18.457Z,9.93
2018-04-08T13:50:49.150Z,10.10
2018-04-08T13:53:21.010Z,6.50
2018-04-08T13:55:55.203Z,9.87
2018-04-08T13:58:27.384Z,8.90
2018-04-08T14:00:59.443Z,11.43
2018-04-08T14:03:31.003Z,8.17
2018-04-08T14:06:02.148Z,9.10
2018-04-08T14:08:33.906Z,6.87
2018-04-08T14:11:06.263Z,9.03
2018-04-08T14:13:37.103Z,8.93
2018-04-08T14:16:08.143Z,7.47
2018-04-08T14:18:42.623Z,11.60
2018-04-08T14:21:16.643Z,7.97
2018-04-08T14:23:48.124Z,8.77
2018-04-08T14:26:20.083Z,11.37
2018-04-08T14:28:50.503Z,10.53
2018-04-08T14:31:23.903Z,6.63
2018-04-08T14:33:56.383Z,5.00
2018-04-08T14:36:27.723Z,6.03
2018-04-08T14:39:03.783Z,5.83
2018-04-08T14:41:37.182Z,7.97
2018-04-08T14:44:08.323Z,7.13
2018-04-08T14:46:40.518Z,6.07
2018-04-08T14:49:12.763Z,8.20
2018-04-08T14:51:44.123Z,11.07
2018-04-08T14:54:15.465Z,9.10
2018-04-08T14:56:50.183Z,10.77
2018-04-08T14:59:21.656Z,7.50
2018-04-08T15:01:52.466Z,5.70
2018-04-08T15:04:24.643Z,5.93
2018-04-08T15:06:55.652Z,7.33
2018-04-08T15:09:27.746Z,12.07
2018-04-08T15:11:59.503Z,6.97
2018-04-08T15:14:33.004Z,10.57
2018-04-08T15:17:04.763Z,8.87
2018-04-08T15:19:37.643Z,8.70
2018-04-08T15:22:08.624Z,9.70
2018-04-08T15:24:41.764Z,5.93
2018-04-08T15:27:13.424Z,8.87
2018-04-08T15:29:49.670Z,6.30
2018-04-08T15:32:25.644Z,9.63
2018-04-08T15:34:57.804Z,6.27
2018-04-08T15:37:30.883Z,6.73
2018-04-08T15:40:05.403Z,8.13
2018-04-08T15:42:42.504Z,11.87
2018-04-08T15:45:13.344Z,6.83
2018-04-08T15:47:44.483Z,7.30
2018-04-08T15:50:16.243Z,5.33
2018-04-08T15:52:48.404Z,5.63
2018-04-08T15:55:20.164Z,7.60
2018-04-08T15:57:51.643Z,7.03
2018-04-08T16:00:24.803Z,6.33
2018-04-08T16:02:56.243Z,4.70
2018-04-08T16:05:28.324Z,15.63
2018-04-08T16:08:05.183Z,4.50
2018-04-08T16:10:36.024Z,5.00
2018-04-08T16:13:07.887Z,7.77
2018-04-08T16:15:38.683Z,7.93
2018-04-08T16:18:12.945Z,7.33
2018-04-08T16:20:46.325Z,8.50
2018-04-08T16:23:20.046Z,12.30
2018-04-08T16:25:55.645Z,7.23
2018-04-08T16:28:26.683Z,6.60
2018-04-08T16:30:57.342Z,11.00
2018-04-08T16:33:29.104Z,8.90
2018-04-08T16:36:01.803Z,18.80
2018-04-08T16:38:34.063Z,8.37
2018-04-08T16:41:05.530Z,8.03
2018-04-08T16:43:36.563Z,7.00
2018-04-08T16:46:08.623Z,9.47
2018-04-08T16:48:40.884Z,5.87
2018-04-08T16:51:11.689Z,6.80
2018-04-08T16:53:43.784Z,8.60
2018-04-08T16:56:14.523Z,9.17
2018-04-08T16:58:45.344Z,8.47
2018-04-08T17:01:22.664Z,9.07
2018-04-08T17:03:57.783Z,7.37
2018-04-08T17:06:30.863Z,13.03
2018-04-08T17:09:01.643Z,6.27
2018-04-08T17:11:34.283Z,6.47
2018-04-08T17:14:05.922Z,6.10
2018-04-08T17:16:37.163Z,7.07
2018-04-08T17:19:09.444Z,6.73
2018-04-08T17:21:41.203Z,9.87
2018-04-08T17:24:15.623Z,6.47
2018-04-08T17:26:46.984Z,7.90
2018-04-08T17:29:19.244Z,9.33
2018-04-08T17:31:51.623Z,9.90
2018-04-08T17:34:23.983Z,6.63
2018-04-08T17:36:54.523Z,7.90
2018-04-08T17:39:28.024Z,9.00
2018-04-08T17:42:00.583Z,6.33
2018-04-08T17:44:31.422Z,9.40
2018-04-08T17:47:07.783Z,7.27
2018-04-08T17:49:38.663Z,7.13
2018-04-08T17:52:10.383Z,10.67
2018-04-08T17:54:42.683Z,7.00
2018-04-08T17:57:14.003Z,5.67
2018-04-08T17:59:46.163Z,5.13
2018-04-08T18:02:18.126Z,5.33
2018-04-08T18:04:50.084Z,6.27
2018-04-08T18:07:21.030Z,12.20
2018-04-08T18:09:51.723Z,6.63
2018-04-08T18:12:28.644Z,6.80
2018-04-08T18:15:00.706Z,7.03
2018-04-08T18:17:33.663Z,5.97
2018-04-08T18:20:07.606Z,6.30
2018-04-08T18:22:38.343Z,10.90
2018-04-08T18:25:10.283Z,7.90
2018-04-08T18:27:42.165Z,6.03
2018-04-08T18:30:16.265Z,9.07
2018-04-08T18:32:47.825Z,8.07
2018-04-08T18:35:17.664Z,7.10
2018-04-08T18:37:49.783Z,7.47
2018-04-08T18:40:22.164Z,5.90
2018-04-08T18:42:55.663Z,6.93
2018-04-08T18:45:27.052Z,6.37
2018-04-08T18:48:00.927Z,6.17
2018-04-08T18:50:36.864Z,9.50
2018-04-08T18:53:08.323Z,8.07
2018-04-08T18:55:39.703Z,7.70
2018-04-08T18:58:10.807Z,5.80
2018-04-08T19:00:41.643Z,7.97
2018-04-08T19:03:12.183Z,9.00
2018-04-08T19:05:45.465Z,6.10
2018-04-08T19:08:16.216Z,6.10
2018-04-08T19:10:49.104Z,6.73
2018-04-08T19:13:20.944Z,6.27
2018-04-08T19:15:53.423Z,5.60
2018-04-08T19:18:23.843Z,8.17
2018-04-08T19:20:54.743Z,6.03
2018-04-08T19:23:28.083Z,6.30
2018-04-08T19:25:59.023Z,8.90
2018-04-08T19:28:30.267Z,7.90
2018-04-08T19:31:04.384Z,6.93
2018-04-08T19:33:36.647Z,7.60
2018-04-08T19:36:08.403Z,6.37
2018-04-08T19:38:42.209Z,6.03
2018-04-08T19:41:15.404Z,5.60
2018-04-08T19:43:47.143Z,5.80
2018-04-08T19:46:20.544Z,8.60
2018-04-08T19:48:54.345Z,7.80
2018-04-08T19:51:25.804Z,7.83
2018-04-08T19:53:58.268Z,5.93
2018-04-08T19:56:29.107Z,6.97
2018-04-08T19:59:02.307Z,6.90
2018-04-08T20:01:40.007Z,6.00
2018-04-08T20:04:11.351Z,6.77
2018-04-08T20:06:42.786Z,6.83
2018-04-08T20:09:15.687Z,6.30
2018-04-08T20:11:47.328Z,5.37
2018-04-08T20:14:20.009Z,6.43
2018-04-08T20:16:51.731Z,6.50
2018-04-08T20:19:25.674Z,7.50
2018-04-08T20:21:57.687Z,8.27
2018-04-08T20:24:28.687Z,6.07
2018-04-08T20:27:00.946Z,7.03
2018-04-08T20:29:31.387Z,6.50
2018-04-08T20:32:02.628Z,10.60
2018-04-08T20:34:34.388Z,7.53
2018-04-08T20:37:06.648Z,7.20
2018-04-08T20:39:37.768Z,6.80
2018-04-08T20:42:08.708Z,7.80
2018-04-08T20:44:40.486Z,9.10
2018-04-08T20:47:12.646Z,6.47
2018-04-08T20:49:44.008Z,6.73
2018-04-08T20:52:19.687Z,5.80
2018-04-08T20:54:51.307Z,10.97
2018-04-08T20:57:24.588Z,6.73
2018-04-08T20:59:58.806Z,7.27
2018-04-08T21:02:30.047Z,7.10
2018-04-08T21:05:03.967Z,7.20
2018-04-08T21:07:40.127Z,8.33
2018-04-08T21:10:22.707Z,8.80
2018-04-08T21:12:54.207Z,8.00
2018-04-08T21:15:28.184Z,6.70
2018-04-08T21:17:59.865Z,7.10
2018-04-08T21:20:30.724Z,7.97
2018-04-08T21:23:01.625Z,7.03
2018-04-08T21:25:32.264Z,8.10
2018-04-08T21:28:03.897Z,7.93
2018-04-08T21:30:33.924Z,7.27
2018-04-08T21:33:07.726Z,8.30
2018-04-08T21:35:40.823Z,7.53
2018-04-08T21:38:14.104Z,6.13
2018-04-08T21:40:46.384Z,6.50
2018-04-08T21:43:20.384Z,6.90
2018-04-08T21:45:51.326Z,6.37
2018-04-08T21:48:27.704Z,5.50
2018-04-08T21:51:00.183Z,6.03
2018-04-08T21:53:31.104Z,7.50
2018-04-08T21:56:03.184Z,8.97
2018-04-08T21:58:33.904Z,9.17
2018-04-08T22:01:05.668Z,6.30
2018-04-08T22:03:38.343Z,7.87
2018-04-08T22:06:10.824Z,5.27
2018-04-08T22:08:44.103Z,6.40
2018-04-08T22:11:15.363Z,6.70
2018-04-08T22:13:48.144Z,7.77
2018-04-08T22:16:22.563Z,6.50
2018-04-08T22:18:55.343Z,6.37
2018-04-08T22:21:27.184Z,7.27
2018-04-08T22:23:58.545Z,6.47
2018-04-08T22:26:31.623Z,6.03
2018-04-08T22:29:02.565Z,6.40
2018-04-08T22:31:33.303Z,6.23
2018-04-08T22:34:06.706Z,11.70
2018-04-08T22:36:37.427Z,7.30
2018-04-08T22:39:09.383Z,6.20
2018-04-08T22:41:41.336Z,6.50
2018-04-08T22:44:12.770Z,6.67
2018-04-08T22:46:43.443Z,8.43
2018-04-08T22:49:16.723Z,8.70
2018-04-08T22:51:47.265Z,7.20
2018-04-08T22:54:18.404Z,8.53
2018-04-08T22:56:49.243Z,6.83
2018-04-08T22:59:19.724Z,6.53
2018-04-08T23:01:50.803Z,7.97
2018-04-08T23:04:21.845Z,8.20
2018-04-08T23:06:54.824Z,5.93
2018-04-08T23:09:25.043Z,6.33
2018-04-08T23:11:56.704Z,7.27
2018-04-08T23:14:28.564Z,8.30
2018-04-08T23:17:07.106Z,7.40
2018-04-08T23:19:38.223Z,6.67
2018-04-08T23:22:09.744Z,7.00
2018-04-08T23:24:42.244Z,9.63
2018-04-08T23:27:12.164Z,7.30
2018-04-08T23:29:46.684Z,6.77
2018-04-08T23:32:17.923Z,7.80
2018-04-08T23:34:49.384Z,6.03
2018-04-08T23:37:21.964Z,8.87
2018-04-08T23:39:55.264Z,6.07
2018-04-08T23:42:26.503Z,6.30
2018-04-08T23:44:59.364Z,6.80
2018-04-08T23:47:30.223Z,7.47
2018-04-08T23:50:00.447Z,6.30
2018-04-08T23:52:31.383Z,6.23
2018-04-08T23:55:03.243Z,6.83
2018-04-08T23:57:37.764Z,11.30
